Trang, Thailand

11:12 AM ICT on August 27, 2016 (GMT +0700)
Trang | | Change Station

Elev 52 ft 7.51 °N, 99.62 °E | Updated 12 minutes ago

Mostly Cloudy
Mostly Cloudy
82 °F
Feels Like 91 °F
N
6
Wind Variable Wind from WNW

Today
High -- | Low -- °F
--% Chance of Precip.
Yesterday
High -- | Low -- °F
Precip. -- in
Pressure 29.83 in
Visibility 4.3 miles
Clouds Few 1700 ft
Scattered Clouds 2300 ft
Mostly Cloudy 10000 ft
Heat Index 91 °F
Dew Point 77 °F
Humidity 84%
Rainfall 0.00 in
Snow Depth Not available.
6:14 AM 6:31 PM
Waning Crescent, 28% visible
METAR VTST 270400Z 30005KT 7000 VCSH FEW017 SCT023 BKN100 28/25 Q1010 RERA RWY08 INFO E
Pressure 29.83 in
Visibility 4.3 miles
Clouds Few 1700 ft
Scattered Clouds 2300 ft
Mostly Cloudy 10000 ft
Heat Index 91 °F
Dew Point 77 °F
Humidity 84%
Rainfall 0.00 in
Snow Depth Not available.
6:14 AM 6:31 PM
Waning Crescent, 28% visible
METAR VTST 270400Z 30005KT 7000 VCSH FEW017 SCT023 BKN100 28/25 Q1010 RERA RWY08 INFO E

10-Day Weather Forecast

No radar image for this location.
×

Almanac

Astronomy

Aug. 27, 2016 Rise Set
Actual Time
Civil Twilight
Nautical Twilight
Astronomical Twilight
Moon
Length of Visible Light
Length of Day
Tomorrow will be .
, % of the Moon is Illuminated

Today's Extremes

Country Highs Country Lows

Community

WunderPhotos

Upload Photos

1,935,292 photos uploaded!

WunderBlog® & News

Nearby

Air Quality

  Air Quality AQ Index Pollutant
Not available.

Snow Depth

Station Depth Elevation

Earthquake Activity

City Distance Mag. Time & Date
Minimum magnitude displayed is 2.5.

Coastal Water Temperatures

Place Temperature

Stations

Nearby Weather Stations

Station Location Temp. Windchill Dew Point Humidity Wind Precip. Elev Updated Type